Time;durP1;ratioP1;P1;durP2;ratioP2;P2;SDS_P1;SDS_P2;PMS_P1;PMS_P2;Temp;Humidity;BMP_temperature;BMP_pressure;BME280_temperature;BME280_humidity;BME280_pressure;Samples;Min_cycle;Max_cycle;Signal;HPM_P1;HPM_P2
2021/11/27 00:00:25;;;;;;;9.23;5.82;;;;;;;;;;5109948;28;20018;-71
2021/11/27 00:02:52;;;;;;;12.20;6.50;;;;;;;;;;5110239;28;20062;-73
2021/11/27 00:05:18;;;;;;;9.23;5.60;;;;;;;;;;5111064;28;20023;-70
2021/11/27 00:07:45;;;;;;;10.40;6.07;;;;;;;;;;5113172;28;20019;-67
2021/11/27 00:10:13;;;;;;;12.82;6.78;;;;;;;;;;5112973;28;20505;-71
2021/11/27 00:12:40;;;;;;;9.23;5.78;;;;;;;;;;5110382;28;20103;-73
2021/11/27 00:15:07;;;;;;;10.32;6.43;;;;;;;;;;5085162;28;20046;-65
2021/11/27 00:17:34;;;;;;;10.70;6.80;;;;;;;;;;5092334;28;20107;-74
2021/11/27 00:20:00;;;;;;;9.77;6.32;;;;;;;;;;5099133;28;20032;-74
2021/11/27 00:22:26;;;;;;;10.85;6.57;;;;;;;;;;5091841;28;20020;-74
2021/11/27 00:24:52;;;;;;;9.43;6.45;;;;;;;;;;5093084;28;20118;-71
2021/11/27 00:27:18;;;;;;;13.25;7.30;;;;;;;;;;5112634;28;20570;-74
2021/11/27 00:29:44;;;;;;;10.93;6.70;;;;;;;;;;5112416;28;20036;-74
2021/11/27 00:32:10;;;;;;;11.60;7.18;;;;;;;;;;5099820;28;20051;-66
2021/11/27 00:34:36;;;;;;;11.95;6.65;;;;;;;;;;5092075;28;20051;-68
2021/11/27 00:37:03;;;;;;;10.05;6.47;;;;;;;;;;5105289;28;20020;-75
2021/11/27 00:39:29;;;;;;;9.60;6.43;;;;;;;;;;5112636;28;20026;-65
2021/11/27 00:41:55;;;;;;;9.70;6.60;;;;;;;;;;5112415;27;20019;-66
2021/11/27 00:44:22;;;;;;;11.32;6.90;;;;;;;;;;5111933;28;20050;-65
2021/11/27 00:46:49;;;;;;;10.30;6.90;;;;;;;;;;5111971;28;20011;-64
2021/11/27 00:49:15;;;;;;;10.57;6.80;;;;;;;;;;5112212;28;20053;-74
2021/11/27 00:51:41;;;;;;;10.52;7.07;;;;;;;;;;5112323;28;20608;-74
2021/11/27 00:54:07;;;;;;;12.75;7.68;;;;;;;;;;5111483;28;20027;-73
2021/11/27 00:56:33;;;;;;;10.68;7.57;;;;;;;;;;5112057;28;20055;-73
2021/11/27 00:59:00;;;;;;;11.05;7.05;;;;;;;;;;5112122;28;20022;-74
2021/11/27 01:01:27;;;;;;;10.77;7.35;;;;;;;;;;5112056;28;20072;-75
2021/11/27 01:03:54;;;;;;;10.25;7.32;;;;;;;;;;5112102;28;20035;-76
2021/11/27 01:06:22;;;;;;;11.50;7.40;;;;;;;;;;5111811;28;20653;-66
2021/11/27 01:08:49;;;;;;;11.98;6.70;;;;;;;;;;5098604;28;20035;-67
2021/11/27 01:11:18;;;;;;;10.63;7.25;;;;;;;;;;5092228;28;20054;-65
2021/11/27 01:13:45;;;;;;;11.70;7.30;;;;;;;;;;5091559;28;20020;-75
2021/11/27 01:16:12;;;;;;;10.35;6.93;;;;;;;;;;5091583;28;20051;-77
2021/11/27 01:18:38;;;;;;;10.90;7.10;;;;;;;;;;5091348;28;20020;-76
2021/11/27 01:21:07;;;;;;;9.63;7.03;;;;;;;;;;5091531;28;20079;-76
2021/11/27 01:23:33;;;;;;;10.52;7.22;;;;;;;;;;5091605;28;20726;-75
2021/11/27 01:25:59;;;;;;;10.50;7.55;;;;;;;;;;5091278;28;20022;-76
2021/11/27 01:28:25;;;;;;;9.63;6.57;;;;;;;;;;5091865;28;20123;-73
2021/11/27 01:30:54;;;;;;;10.43;7.10;;;;;;;;;;5091276;28;20032;-72
2021/11/27 01:33:20;;;;;;;9.50;6.90;;;;;;;;;;5092709;28;20016;-66
2021/11/27 01:35:46;;;;;;;13.82;7.28;;;;;;;;;;5095369;28;20073;-63
2021/11/27 01:38:13;;;;;;;10.48;7.55;;;;;;;;;;5077191;28;20020;-66
2021/11/27 01:40:39;;;;;;;9.93;6.72;;;;;;;;;;5095415;28;20516;-70
2021/11/27 01:43:05;;;;;;;10.90;7.35;;;;;;;;;;5095445;28;20024;-67
2021/11/27 01:45:31;;;;;;;10.65;6.78;;;;;;;;;;5095716;28;20048;-64
2021/11/27 01:48:00;;;;;;;10.60;6.88;;;;;;;;;;5095147;28;20034;-65
2021/11/27 01:50:27;;;;;;;11.43;7.20;;;;;;;;;;5076779;28;20048;-64
2021/11/27 01:52:53;;;;;;;10.20;7.05;;;;;;;;;;5095293;28;20031;-65
2021/11/27 01:55:19;;;;;;;10.35;6.82;;;;;;;;;;5095301;28;20024;-66
2021/11/27 01:57:45;;;;;;;9.63;6.68;;;;;;;;;;5076983;28;20375;-63
2021/11/27 02:00:15;;;;;;;10.32;6.60;;;;;;;;;;5095132;28;20035;-68
2021/11/27 02:02:41;;;;;;;11.25;7.45;;;;;;;;;;5095379;28;20098;-70
2021/11/27 02:05:08;;;;;;;11.27;6.93;;;;;;;;;;5094961;28;20024;-74
2021/11/27 02:07:34;;;;;;;9.15;6.50;;;;;;;;;;5096107;28;20112;-71
2021/11/27 02:10:00;;;;;;;10.02;6.97;;;;;;;;;;5076561;28;20117;-72
2021/11/27 02:12:26;;;;;;;11.00;6.57;;;;;;;;;;5094928;28;20024;-72
2021/11/27 02:14:52;;;;;;;9.07;6.13;;;;;;;;;;5094421;28;20059;-65
2021/11/27 02:17:19;;;;;;;9.32;6.40;;;;;;;;;;5076395;28;20020;-68
2021/11/27 02:19:45;;;;;;;9.65;6.55;;;;;;;;;;5113814;28;20028;-67
2021/11/27 02:22:11;;;;;;;10.32;6.55;;;;;;;;;;5114956;28;20028;-63
2021/11/27 02:24:37;;;;;;;8.73;6.05;;;;;;;;;;5115037;28;20036;-66
2021/11/27 02:27:04;;;;;;;10.25;6.43;;;;;;;;;;5114793;28;20390;-73
2021/11/27 02:29:31;;;;;;;9.38;6.80;;;;;;;;;;5114912;28;20031;-73
2021/11/27 02:31:57;;;;;;;10.48;6.55;;;;;;;;;;5115141;28;20044;-69
2021/11/27 02:34:24;;;;;;;9.98;6.22;;;;;;;;;;5114489;28;20031;-72
2021/11/27 02:36:51;;;;;;;9.60;6.45;;;;;;;;;;5094849;28;20034;-70
2021/11/27 02:39:19;;;;;;;9.07;5.93;;;;;;;;;;5076212;28;20072;-74
2021/11/27 02:41:45;;;;;;;14.75;6.65;;;;;;;;;;5076304;28;20498;-74
2021/11/27 02:44:11;;;;;;;11.68;6.20;;;;;;;;;;5093928;28;20048;-71
2021/11/27 02:46:38;;;;;;;10.18;6.28;;;;;;;;;;5094342;28;20031;-65
2021/11/27 02:49:05;;;;;;;10.30;6.53;;;;;;;;;;5094397;28;20063;-71
2021/11/27 02:51:31;;;;;;;9.07;5.97;;;;;;;;;;5094969;28;20427;-66
2021/11/27 02:53:57;;;;;;;9.32;6.25;;;;;;;;;;5094369;28;20045;-66
2021/11/27 02:56:23;;;;;;;10.30;6.60;;;;;;;;;;5094315;28;20027;-69
2021/11/27 02:58:50;;;;;;;9.02;6.28;;;;;;;;;;5094267;28;20031;-66
2021/11/27 03:01:16;;;;;;;10.05;6.60;;;;;;;;;;5094483;28;20034;-66
2021/11/27 03:03:42;;;;;;;12.35;6.43;;;;;;;;;;5094024;28;20028;-70
2021/11/27 03:06:08;;;;;;;18.10;6.38;;;;;;;;;;5094375;28;20622;-67
2021/11/27 03:08:36;;;;;;;14.27;6.20;;;;;;;;;;5103911;28;20089;-72
2021/11/27 03:11:02;;;;;;;14.63;5.97;;;;;;;;;;5094242;28;20028;-75
2021/11/27 03:13:36;;;;;;;11.07;6.88;;;;;;;;;;5093942;28;20031;-70
2021/11/27 03:16:02;;;;;;;10.23;6.25;;;;;;;;;;5075888;28;20020;-65
2021/11/27 03:18:28;;;;;;;10.02;6.30;;;;;;;;;;5093611;28;20028;-65
2021/11/27 03:20:54;;;;;;;10.00;6.28;;;;;;;;;;5093522;28;20023;-65
2021/11/27 03:23:21;;;;;;;11.60;6.38;;;;;;;;;;5093530;28;20024;-70
2021/11/27 03:25:47;;;;;;;10.55;6.53;;;;;;;;;;5093869;28;20020;-64
2021/11/27 03:28:13;;;;;;;9.75;6.07;;;;;;;;;;5093356;28;20042;-73
2021/11/27 03:30:39;;;;;;;9.25;6.18;;;;;;;;;;5093395;28;20036;-62
2021/11/27 03:33:06;;;;;;;9.68;6.20;;;;;;;;;;5093463;28;20020;-71
2021/11/27 03:35:32;;;;;;;10.00;6.13;;;;;;;;;;5093747;28;20532;-70
2021/11/27 03:37:58;;;;;;;9.70;6.47;;;;;;;;;;5093276;28;20008;-64
2021/11/27 03:40:24;;;;;;;11.02;6.63;;;;;;;;;;5075977;28;20493;-71
2021/11/27 03:42:50;;;;;;;10.32;6.88;;;;;;;;;;5094354;28;20053;-69
2021/11/27 03:45:19;;;;;;;11.43;6.68;;;;;;;;;;5093585;28;20080;-63
2021/11/27 03:48:04;;;;;;;11.15;6.45;;;;;;;;;;5075077;28;20497;-76
2021/11/27 03:50:32;;;;;;;11.20;6.85;;;;;;;;;;5093253;28;20032;-67
2021/11/27 03:52:58;;;;;;;10.50;6.45;;;;;;;;;;5093256;28;20383;-64
2021/11/27 03:55:24;;;;;;;9.75;6.30;;;;;;;;;;5074164;28;20028;-70
2021/11/27 03:57:50;;;;;;;10.85;6.78;;;;;;;;;;5092727;28;20384;-66
2021/11/27 04:00:17;;;;;;;11.75;6.32;;;;;;;;;;5093025;28;20026;-64
2021/11/27 04:02:43;;;;;;;10.05;6.40;;;;;;;;;;5093108;28;20073;-63
2021/11/27 04:05:09;;;;;;;10.60;6.63;;;;;;;;;;5074528;28;20039;-66
2021/11/27 04:07:35;;;;;;;10.82;7.10;;;;;;;;;;5092859;28;20029;-64
2021/11/27 04:10:01;;;;;;;11.52;6.43;;;;;;;;;;5092868;28;20082;-64
2021/11/27 04:12:27;;;;;;;9.50;6.18;;;;;;;;;;5092908;28;20020;-68
2021/11/27 04:14:54;;;;;;;9.55;6.43;;;;;;;;;;5092841;28;20020;-64
2021/11/27 04:17:20;;;;;;;10.32;6.40;;;;;;;;;;5092780;28;20077;-64
2021/11/27 04:19:46;;;;;;;9.48;5.75;;;;;;;;;;5092677;28;20027;-69
2021/11/27 04:22:12;;;;;;;10.07;6.88;;;;;;;;;;5092607;28;20024;-64
2021/11/27 04:24:39;;;;;;;9.88;5.70;;;;;;;;;;5074415;28;20107;-63
2021/11/27 04:27:05;;;;;;;11.05;6.55;;;;;;;;;;5092519;28;20076;-65
2021/11/27 04:29:31;;;;;;;11.85;6.78;;;;;;;;;;5092445;28;20063;-70
2021/11/27 04:31:58;;;;;;;12.60;7.38;;;;;;;;;;5092443;28;20035;-68
2021/11/27 04:34:24;;;;;;;9.23;6.30;;;;;;;;;;5092354;28;20012;-64
2021/11/27 04:36:50;;;;;;;9.50;6.03;;;;;;;;;;5092249;28;20463;-76
2021/11/27 04:39:16;;;;;;;10.43;6.85;;;;;;;;;;5092462;28;20544;-63
2021/11/27 04:41:42;;;;;;;9.77;6.60;;;;;;;;;;5092372;28;20024;-64
2021/11/27 04:44:08;;;;;;;10.15;6.30;;;;;;;;;;5073927;28;20478;-63
2021/11/27 04:46:34;;;;;;;11.63;6.40;;;;;;;;;;5092150;28;20454;-74
2021/11/27 04:49:00;;;;;;;11.23;6.47;;;;;;;;;;5092091;28;20024;-72
2021/11/27 04:51:26;;;;;;;9.65;6.20;;;;;;;;;;5092209;28;20052;-64
2021/11/27 04:53:52;;;;;;;10.48;6.25;;;;;;;;;;5092127;28;20368;-65
2021/11/27 04:56:18;;;;;;;9.50;6.35;;;;;;;;;;5092038;28;20466;-65
2021/11/27 04:58:44;;;;;;;12.10;6.78;;;;;;;;;;5091874;28;20375;-66
2021/11/27 05:01:10;;;;;;;12.48;6.38;;;;;;;;;;5073632;28;20023;-69
2021/11/27 05:03:36;;;;;;;8.90;6.30;;;;;;;;;;5092247;28;20420;-63
2021/11/27 05:06:03;;;;;;;9.68;6.07;;;;;;;;;;5092141;28;20043;-66
2021/11/27 05:08:29;;;;;;;10.43;6.65;;;;;;;;;;5092144;28;20468;-63
2021/11/27 05:10:55;;;;;;;8.63;6.10;;;;;;;;;;5092180;28;20062;-63
2021/11/27 05:13:21;;;;;;;9.32;6.40;;;;;;;;;;5092351;28;20028;-73
2021/11/27 05:15:47;;;;;;;9.00;6.45;;;;;;;;;;5073739;28;20024;-74
2021/11/27 05:18:13;;;;;;;10.45;6.70;;;;;;;;;;5091977;28;20030;-62
2021/11/27 05:20:39;;;;;;;9.95;6.78;;;;;;;;;;5092200;28;20024;-66
2021/11/27 05:23:06;;;;;;;11.43;7.28;;;;;;;;;;5092236;28;20051;-65
2021/11/27 05:25:33;;;;;;;11.07;7.18;;;;;;;;;;5091488;28;20024;-68
2021/11/27 05:27:59;;;;;;;10.35;6.90;;;;;;;;;;5091717;28;20125;-62
2021/11/27 05:30:27;;;;;;;11.35;7.75;;;;;;;;;;5091635;28;20036;-63
2021/11/27 05:35:20;;;;;;;11.75;7.22;;;;;;;;;;5091908;28;20482;-64
2021/11/27 05:37:46;;;;;;;10.90;7.60;;;;;;;;;;5091599;28;20487;-64
2021/11/27 05:40:13;;;;;;;12.50;7.47;;;;;;;;;;5091458;28;20439;-67
2021/11/27 05:42:39;;;;;;;12.30;7.20;;;;;;;;;;5091385;28;20023;-66
2021/11/27 05:45:05;;;;;;;10.27;7.32;;;;;;;;;;5091277;28;20046;-64
2021/11/27 05:47:31;;;;;;;11.15;6.85;;;;;;;;;;5091413;28;20020;-64
2021/11/27 05:49:57;;;;;;;11.30;7.05;;;;;;;;;;5091689;28;20031;-64
2021/11/27 05:52:23;;;;;;;11.07;7.13;;;;;;;;;;5091285;28;20056;-64
2021/11/27 05:54:49;;;;;;;9.45;6.70;;;;;;;;;;5073001;28;20483;-66
2021/11/27 05:57:16;;;;;;;10.18;6.88;;;;;;;;;;5072990;28;20020;-65
2021/11/27 05:59:42;;;;;;;11.95;6.72;;;;;;;;;;5072776;28;20039;-70
2021/11/27 06:02:08;;;;;;;14.00;7.57;;;;;;;;;;5091285;28;20016;-67
2021/11/27 06:04:34;;;;;;;10.77;6.82;;;;;;;;;;5091152;28;20024;-71
2021/11/27 06:07:00;;;;;;;11.90;6.78;;;;;;;;;;5091018;28;20142;-72
2021/11/27 06:09:26;;;;;;;10.13;6.53;;;;;;;;;;5091091;28;20032;-64
2021/11/27 06:11:52;;;;;;;9.85;6.80;;;;;;;;;;5091251;28;20028;-69
2021/11/27 06:14:18;;;;;;;9.90;6.60;;;;;;;;;;5091017;28;20411;-66
2021/11/27 06:16:44;;;;;;;10.05;6.95;;;;;;;;;;5091154;28;20103;-68
2021/11/27 06:19:10;;;;;;;9.75;6.75;;;;;;;;;;5092296;28;20028;-64
2021/11/27 06:21:37;;;;;;;10.30;6.63;;;;;;;;;;5095010;28;20028;-68
2021/11/27 06:24:03;;;;;;;9.75;6.65;;;;;;;;;;5094978;28;20501;-65
2021/11/27 06:26:29;;;;;;;9.93;7.03;;;;;;;;;;5094800;28;20478;-64
2021/11/27 06:28:55;;;;;;;10.95;7.22;;;;;;;;;;5094632;28;20020;-67
2021/11/27 06:31:21;;;;;;;10.65;6.82;;;;;;;;;;5094759;28;20100;-69
2021/11/27 06:33:47;;;;;;;10.43;6.30;;;;;;;;;;5094682;28;20043;-71
2021/11/27 06:36:13;;;;;;;10.10;6.80;;;;;;;;;;5094641;28;20664;-64
2021/11/27 06:38:39;;;;;;;9.85;6.20;;;;;;;;;;5094607;28;20089;-64
2021/11/27 06:41:06;;;;;;;10.18;6.63;;;;;;;;;;5094555;28;20107;-64
2021/11/27 06:43:32;;;;;;;10.82;6.30;;;;;;;;;;5094336;28;20024;-64
2021/11/27 06:46:00;;;;;;;10.88;6.32;;;;;;;;;;5093977;28;20109;-64
2021/11/27 06:48:26;;;;;;;9.52;6.70;;;;;;;;;;5094276;28;20025;-67
2021/11/27 06:50:52;;;;;;;9.27;6.05;;;;;;;;;;5094261;28;20036;-63
2021/11/27 06:53:18;;;;;;;11.40;6.32;;;;;;;;;;5094574;28;20115;-68
2021/11/27 06:55:44;;;;;;;9.65;5.80;;;;;;;;;;5094452;28;20050;-68
2021/11/27 06:58:10;;;;;;;8.60;5.78;;;;;;;;;;5094258;28;20492;-67
2021/11/27 07:00:36;;;;;;;8.63;5.95;;;;;;;;;;5076255;28;20024;-64
2021/11/27 07:03:03;;;;;;;9.20;5.07;;;;;;;;;;5114269;28;20024;-64
2021/11/27 07:05:29;;;;;;;8.05;5.18;;;;;;;;;;5114162;28;20513;-64
2021/11/27 07:07:55;;;;;;;6.68;4.38;;;;;;;;;;5096243;28;20031;-66
2021/11/27 07:10:21;;;;;;;6.95;4.63;;;;;;;;;;5114546;28;20036;-69
2021/11/27 07:12:47;;;;;;;49.80;26.70;;;;;;;;;;5114390;28;20051;-74
2021/11/27 07:15:13;;;;;;;40.50;22.38;;;;;;;;;;5114047;28;20099;-65
2021/11/27 07:17:40;;;;;;;57.90;36.38;;;;;;;;;;5114137;28;20041;-64
2021/11/27 07:20:07;;;;;;;407.02;264.65;;;;;;;;;;5114195;28;20027;-64
2021/11/27 07:22:33;;;;;;;271.58;177.35;;;;;;;;;;5114270;28;20055;-71
2021/11/27 07:24:59;;;;;;;201.20;130.20;;;;;;;;;;5114006;28;20030;-64
2021/11/27 07:27:25;;;;;;;174.25;111.82;;;;;;;;;;5114061;28;20028;-76
2021/11/27 07:29:51;;;;;;;164.70;108.20;;;;;;;;;;5113912;28;20543;-66
2021/11/27 07:32:18;;;;;;;169.55;106.88;;;;;;;;;;5114063;28;20077;-67
2021/11/27 07:34:44;;;;;;;165.95;104.00;;;;;;;;;;5113574;28;20023;-65
2021/11/27 07:37:10;;;;;;;150.25;97.30;;;;;;;;;;5104900;28;20060;-64
2021/11/27 07:39:38;;;;;;;133.52;87.38;;;;;;;;;;5089774;28;20084;-64
2021/11/27 07:42:04;;;;;;;123.78;78.72;;;;;;;;;;5110219;28;20043;-65
2021/11/27 07:44:30;;;;;;;122.45;77.38;;;;;;;;;;5089918;28;20085;-64
2021/11/27 07:46:57;;;;;;;129.07;78.78;;;;;;;;;;5090948;28;20020;-64
2021/11/27 07:49:26;;;;;;;131.38;82.57;;;;;;;;;;5092353;28;20040;-65
2021/11/27 07:51:53;;;;;;;130.70;81.22;;;;;;;;;;5092522;28;20020;-70
2021/11/27 07:54:19;;;;;;;131.63;80.13;;;;;;;;;;5092041;28;20027;-72
2021/11/27 07:56:46;;;;;;;123.65;77.07;;;;;;;;;;5091130;28;20024;-64
2021/11/27 07:59:12;;;;;;;102.15;61.47;;;;;;;;;;5090824;28;20024;-74
2021/11/27 08:01:38;;;;;;;95.20;57.03;;;;;;;;;;5090171;28;20643;-71
2021/11/27 08:04:04;;;;;;;96.93;61.05;;;;;;;;;;5091403;28;20023;-75
2021/11/27 08:06:30;;;;;;;92.40;57.55;;;;;;;;;;5091784;28;20032;-64
2021/11/27 08:08:56;;;;;;;98.45;59.13;;;;;;;;;;5091462;28;20028;-75
2021/11/27 08:11:26;;;;;;;86.32;52.60;;;;;;;;;;5091478;28;20032;-64
2021/11/27 08:13:53;;;;;;;78.18;46.97;;;;;;;;;;5087741;28;20020;-73
2021/11/27 08:16:19;;;;;;;81.40;49.83;;;;;;;;;;5090007;28;20031;-67
2021/11/27 08:18:46;;;;;;;81.72;46.97;;;;;;;;;;5091324;28;20091;-65
2021/11/27 08:21:12;;;;;;;81.57;49.17;;;;;;;;;;5088880;28;20127;-65
2021/11/27 08:23:38;;;;;;;94.78;46.25;;;;;;;;;;5090841;28;20024;-70
2021/11/27 08:26:04;;;;;;;65.93;40.95;;;;;;;;;;5090736;28;20016;-68
2021/11/27 08:28:30;;;;;;;75.45;43.08;;;;;;;;;;5089720;28;20020;-65
2021/11/27 08:30:56;;;;;;;64.72;41.53;;;;;;;;;;5090144;28;20032;-68
2021/11/27 08:33:22;;;;;;;67.10;39.28;;;;;;;;;;5090264;28;20054;-65
2021/11/27 08:35:48;;;;;;;66.78;41.50;;;;;;;;;;5090180;28;20598;-69
2021/11/27 08:38:15;;;;;;;57.55;34.67;;;;;;;;;;5090873;28;20478;-67
2021/11/27 08:40:41;;;;;;;57.70;34.33;;;;;;;;;;5091421;28;20352;-65
2021/11/27 08:43:07;;;;;;;56.70;35.97;;;;;;;;;;5087932;28;20027;-62
2021/11/27 08:45:33;;;;;;;51.53;32.70;;;;;;;;;;5100783;28;20047;-66
2021/11/27 08:47:59;;;;;;;57.10;33.53;;;;;;;;;;5112047;28;20028;-73
2021/11/27 08:50:25;;;;;;;51.03;32.55;;;;;;;;;;5110844;28;20034;-71
2021/11/27 08:52:51;;;;;;;48.05;28.48;;;;;;;;;;5111181;28;20081;-70
2021/11/27 08:55:18;;;;;;;50.90;28.52;;;;;;;;;;5111338;28;20023;-67
2021/11/27 08:57:44;;;;;;;46.15;29.58;;;;;;;;;;5093302;28;20016;-66
2021/11/27 09:00:11;;;;;;;44.92;28.30;;;;;;;;;;5092864;28;20023;-70
2021/11/27 09:02:38;;;;;;;48.05;29.38;;;;;;;;;;5111463;28;20027;-65
2021/11/27 09:05:04;;;;;;;41.53;26.73;;;;;;;;;;5092905;28;20015;-66
2021/11/27 09:07:30;;;;;;;40.75;27.55;;;;;;;;;;5111449;28;20068;-63
2021/11/27 09:09:57;;;;;;;45.10;28.00;;;;;;;;;;5112036;28;20035;-63
2021/11/27 09:12:23;;;;;;;45.35;26.52;;;;;;;;;;5112188;28;20031;-68
2021/11/27 09:14:50;;;;;;;42.97;26.27;;;;;;;;;;5112025;28;20022;-62
2021/11/27 09:17:16;;;;;;;37.70;23.40;;;;;;;;;;5111888;28;20041;-72
2021/11/27 09:19:42;;;;;;;37.28;23.83;;;;;;;;;;5111967;28;20022;-64
2021/11/27 09:22:09;;;;;;;56.10;26.00;;;;;;;;;;5112221;28;20026;-65
2021/11/27 09:24:35;;;;;;;56.97;27.88;;;;;;;;;;5109959;28;20022;-68
2021/11/27 09:27:01;;;;;;;50.05;23.73;;;;;;;;;;5103729;28;20059;-65
2021/11/27 09:29:27;;;;;;;38.92;22.60;;;;;;;;;;5110443;28;20382;-72
2021/11/27 09:31:53;;;;;;;48.75;24.90;;;;;;;;;;5091870;28;20016;-65
2021/11/27 09:34:19;;;;;;;43.63;22.67;;;;;;;;;;5111430;28;20028;-68
2021/11/27 09:36:47;;;;;;;44.22;22.33;;;;;;;;;;5111218;28;20024;-65
2021/11/27 09:39:14;;;;;;;39.38;20.63;;;;;;;;;;5111569;28;20019;-64
2021/11/27 09:41:42;;;;;;;37.33;20.88;;;;;;;;;;5092151;28;20030;-66
2021/11/27 09:44:10;;;;;;;37.40;20.40;;;;;;;;;;5110316;28;20012;-64
2021/11/27 09:46:37;;;;;;;46.83;23.27;;;;;;;;;;5098615;28;20027;-69
2021/11/27 09:49:05;;;;;;;37.17;20.67;;;;;;;;;;5101450;28;20031;-72
2021/11/27 09:51:32;;;;;;;35.92;23.77;;;;;;;;;;5085564;28;20402;-65
2021/11/27 09:53:59;;;;;;;31.52;19.75;;;;;;;;;;5105357;28;20020;-64
2021/11/27 09:56:25;;;;;;;24.55;16.80;;;;;;;;;;5116090;28;20076;-68
2021/11/27 09:58:51;;;;;;;26.48;16.23;;;;;;;;;;5115904;28;20051;-70
2021/11/27 10:01:19;;;;;;;22.85;14.38;;;;;;;;;;5115743;28;20023;-72
2021/11/27 10:03:52;;;;;;;26.73;14.40;;;;;;;;;;5114894;28;20023;-69
2021/11/27 10:06:18;;;;;;;30.65;14.10;;;;;;;;;;5114864;28;20077;-68
2021/11/27 10:08:44;;;;;;;25.75;13.35;;;;;;;;;;5115615;28;20047;-72
2021/11/27 10:11:10;;;;;;;20.42;12.63;;;;;;;;;;5115512;28;20063;-65
2021/11/27 10:13:36;;;;;;;19.58;12.63;;;;;;;;;;5115580;28;20531;-64
2021/11/27 10:16:02;;;;;;;20.77;12.75;;;;;;;;;;5115629;28;20428;-67
2021/11/27 10:18:29;;;;;;;24.42;12.45;;;;;;;;;;5097076;28;20466;-65
2021/11/27 10:21:14;;;;;;;17.73;11.38;;;;;;;;;;5115314;28;20031;-64
2021/11/27 10:23:41;;;;;;;18.00;11.35;;;;;;;;;;5108358;28;20031;-71
2021/11/27 10:26:07;;;;;;;18.15;11.68;;;;;;;;;;5115045;28;20020;-65
2021/11/27 10:28:34;;;;;;;21.40;10.38;;;;;;;;;;5115161;28;20024;-65
2021/11/27 10:31:03;;;;;;;16.70;10.80;;;;;;;;;;5096995;28;20473;-64
2021/11/27 10:33:36;;;;;;;17.38;11.48;;;;;;;;;;5097095;28;20669;-70
2021/11/27 10:36:07;;;;;;;16.27;10.85;;;;;;;;;;5115480;28;20023;-66
2021/11/27 10:38:42;;;;;;;16.13;9.80;;;;;;;;;;5097054;28;20031;-64
2021/11/27 10:41:09;;;;;;;17.15;10.35;;;;;;;;;;5108247;28;20024;-69
2021/11/27 10:43:36;;;;;;;15.82;10.77;;;;;;;;;;5115130;28;20023;-69
2021/11/27 10:46:02;;;;;;;15.23;9.52;;;;;;;;;;5115075;28;20043;-65
2021/11/27 10:48:29;;;;;;;15.25;9.73;;;;;;;;;;5096982;28;20437;-64
2021/11/27 10:50:58;;;;;;;13.80;9.52;;;;;;;;;;5115168;28;20038;-66
2021/11/27 10:53:37;;;;;;;17.38;9.45;;;;;;;;;;5115227;28;20065;-64
2021/11/27 10:56:07;;;;;;;13.07;8.23;;;;;;;;;;5112220;28;20023;-71
2021/11/27 10:58:53;;;;;;;11.85;8.32;;;;;;;;;;5094711;28;20495;-69
2021/11/27 11:01:19;;;;;;;11.65;8.57;;;;;;;;;;5094476;28;20024;-65
2021/11/27 11:03:47;;;;;;;14.77;8.63;;;;;;;;;;5094677;28;20020;-64
2021/11/27 11:06:20;;;;;;;16.30;8.48;;;;;;;;;;5094083;28;20484;-64
2021/11/27 11:08:48;;;;;;;12.27;7.80;;;;;;;;;;5094606;28;20177;-64
2021/11/27 11:11:23;;;;;;;14.40;7.90;;;;;;;;;;5093504;28;20032;-66
2021/11/27 11:13:54;;;;;;;11.20;7.45;;;;;;;;;;5094905;28;20024;-64
2021/11/27 11:16:21;;;;;;;10.40;7.13;;;;;;;;;;5094298;28;20020;-68
2021/11/27 11:18:51;;;;;;;10.95;7.55;;;;;;;;;;5094156;28;20024;-64
2021/11/27 11:21:17;;;;;;;10.68;6.72;;;;;;;;;;5094249;28;20012;-64
2021/11/27 11:23:44;;;;;;;10.35;7.40;;;;;;;;;;5075998;28;20030;-68
2021/11/27 11:26:12;;;;;;;11.15;7.07;;;;;;;;;;5094331;28;20471;-64
2021/11/27 11:28:40;;;;;;;10.02;6.68;;;;;;;;;;5098125;28;20031;-64
2021/11/27 11:31:08;;;;;;;9.82;6.88;;;;;;;;;;5075835;28;20391;-69
2021/11/27 11:33:36;;;;;;;13.68;7.65;;;;;;;;;;5094046;28;20024;-64
2021/11/27 11:36:07;;;;;;;12.10;6.72;;;;;;;;;;5093747;28;20499;-67
2021/11/27 11:38:33;;;;;;;8.88;6.20;;;;;;;;;;5093735;28;20116;-68
2021/11/27 11:40:59;;;;;;;10.73;6.75;;;;;;;;;;5111508;28;20069;-71
2021/11/27 11:43:26;;;;;;;10.68;6.00;;;;;;;;;;5103857;28;20026;-64
2021/11/27 11:45:52;;;;;;;10.70;6.60;;;;;;;;;;5111174;28;20118;-72
2021/11/27 11:48:23;;;;;;;9.43;6.28;;;;;;;;;;5113911;28;20027;-68
2021/11/27 11:50:55;;;;;;;10.55;6.45;;;;;;;;;;5110748;28;20111;-70
2021/11/27 11:53:41;;;;;;;8.45;5.40;;;;;;;;;;5113615;28;20023;-66
2021/11/27 11:56:09;;;;;;;8.75;5.95;;;;;;;;;;5113246;28;20058;-71
2021/11/27 11:58:39;;;;;;;8.10;5.68;;;;;;;;;;5103525;28;20020;-69
2021/11/27 12:01:26;;;;;;;9.40;5.80;;;;;;;;;;5113031;28;20043;-68
2021/11/27 12:03:52;;;;;;;9.55;6.00;;;;;;;;;;5111115;28;20019;-65
2021/11/27 12:06:21;;;;;;;10.27;5.80;;;;;;;;;;5113459;28;20028;-68
2021/11/27 12:08:48;;;;;;;9.00;5.68;;;;;;;;;;5113452;28;20033;-64
2021/11/27 12:11:34;;;;;;;8.10;5.57;;;;;;;;;;5113404;28;20031;-65
2021/11/27 12:14:00;;;;;;;8.25;5.50;;;;;;;;;;5093460;28;20380;-72
2021/11/27 12:16:26;;;;;;;8.68;5.88;;;;;;;;;;5107933;28;20085;-72
2021/11/27 12:19:11;;;;;;;7.43;4.82;;;;;;;;;;5111975;28;20245;-72
2021/11/27 12:21:37;;;;;;;9.05;5.38;;;;;;;;;;5093264;28;20024;-65
2021/11/27 12:24:03;;;;;;;7.97;4.47;;;;;;;;;;5109078;28;20020;-71
2021/11/27 12:26:30;;;;;;;18.15;5.43;;;;;;;;;;5112662;28;20517;-65
2021/11/27 12:28:56;;;;;;;10.32;5.18;;;;;;;;;;5111615;28;20064;-65
2021/11/27 12:31:26;;;;;;;10.10;5.50;;;;;;;;;;5094136;28;20032;-66
2021/11/27 12:34:02;;;;;;;11.20;5.25;;;;;;;;;;5113242;28;20115;-64
2021/11/27 12:36:29;;;;;;;10.02;4.80;;;;;;;;;;5113216;28;20467;-64
2021/11/27 12:38:56;;;;;;;10.38;4.78;;;;;;;;;;5106507;28;20028;-67
2021/11/27 12:41:39;;;;;;;11.05;4.85;;;;;;;;;;5112359;28;20055;-65
2021/11/27 12:44:15;;;;;;;7.40;4.38;;;;;;;;;;5109044;28;20035;-66
2021/11/27 12:46:46;;;;;;;8.32;4.65;;;;;;;;;;5105990;28;20069;-72
2021/11/27 12:49:30;;;;;;;9.10;5.18;;;;;;;;;;5107078;28;20543;-70
2021/11/27 12:54:45;;;;;;;10.68;5.18;;;;;;;;;;5092645;28;20495;-67
2021/11/27 12:57:15;;;;;;;12.75;5.15;;;;;;;;;;5092259;28;20437;-73
2021/11/27 12:59:44;;;;;;;9.25;4.18;;;;;;;;;;5074061;28;20437;-64
2021/11/27 13:02:18;;;;;;;11.85;4.53;;;;;;;;;;5074092;28;20477;-68
2021/11/27 13:04:45;;;;;;;6.65;4.13;;;;;;;;;;5107905;28;20019;-68
2021/11/27 13:07:12;;;;;;;10.90;4.18;;;;;;;;;;5110365;27;20051;-71
2021/11/27 13:09:38;;;;;;;10.73;4.47;;;;;;;;;;5111206;28;20057;-67
2021/11/27 13:12:12;;;;;;;7.40;4.05;;;;;;;;;;5093685;28;20030;-64
2021/11/27 13:14:38;;;;;;;9.13;4.22;;;;;;;;;;5109732;27;20470;-71
2021/11/27 13:17:04;;;;;;;7.50;4.53;;;;;;;;;;5107645;28;20517;-70
2021/11/27 13:19:32;;;;;;;7.80;4.50;;;;;;;;;;5112157;28;20103;-69
2021/11/27 13:22:05;;;;;;;7.82;5.00;;;;;;;;;;5102802;28;20036;-71
2021/11/27 13:24:32;;;;;;;9.45;4.90;;;;;;;;;;5111820;28;20011;-71
2021/11/27 13:26:58;;;;;;;10.93;5.07;;;;;;;;;;5109421;28;20072;-71
2021/11/27 13:29:28;;;;;;;12.15;4.95;;;;;;;;;;5109739;28;20023;-75
2021/11/27 13:31:54;;;;;;;8.25;4.15;;;;;;;;;;5110878;28;20085;-73
2021/11/27 13:34:20;;;;;;;8.10;4.40;;;;;;;;;;5103651;28;20020;-75
2021/11/27 13:36:50;;;;;;;8.02;4.15;;;;;;;;;;5111295;28;20045;-73
2021/11/27 13:39:23;;;;;;;7.55;4.40;;;;;;;;;;5111617;28;20055;-74
2021/11/27 13:42:02;;;;;;;8.18;4.05;;;;;;;;;;5110663;28;20026;-72
2021/11/27 13:44:32;;;;;;;8.35;4.50;;;;;;;;;;5111301;28;20110;-72
2021/11/27 13:46:59;;;;;;;9.40;4.88;;;;;;;;;;5111271;28;20024;-69
2021/11/27 13:49:33;;;;;;;8.90;4.57;;;;;;;;;;5111380;28;20103;-64
2021/11/27 13:51:59;;;;;;;9.45;4.65;;;;;;;;;;5093010;28;20516;-70
2021/11/27 13:54:28;;;;;;;8.30;4.18;;;;;;;;;;5111288;28;20023;-73
2021/11/27 13:56:55;;;;;;;11.38;4.57;;;;;;;;;;5093089;28;20497;-74
2021/11/27 13:59:31;;;;;;;8.88;4.47;;;;;;;;;;5111333;28;20030;-74
2021/11/27 14:02:18;;;;;;;7.45;5.00;;;;;;;;;;5111294;28;20073;-74
2021/11/27 14:04:44;;;;;;;11.93;4.97;;;;;;;;;;5111216;28;20402;-71
2021/11/27 14:07:11;;;;;;;11.13;4.78;;;;;;;;;;5111207;28;20028;-70
2021/11/27 14:09:49;;;;;;;7.45;4.78;;;;;;;;;;5110949;28;20027;-72
2021/11/27 14:12:32;;;;;;;8.32;4.35;;;;;;;;;;5094436;28;20099;-69
2021/11/27 14:14:57;;;;;;;;;;;;;;;;;;5093115;28;20055;-67
2021/11/27 14:17:24;;;;;;;8.48;4.75;;;;;;;;;;5109730;28;19958;-63
2021/11/27 14:19:50;;;;;;;7.00;4.10;;;;;;;;;;5110051;28;20102;-65
2021/11/27 14:22:16;;;;;;;7.50;4.35;;;;;;;;;;5110479;28;20427;-71
2021/11/27 14:24:43;;;;;;;8.52;4.82;;;;;;;;;;5109890;28;20039;-65
2021/11/27 14:27:11;;;;;;;8.65;4.97;;;;;;;;;;5092475;28;20028;-71
2021/11/27 14:29:37;;;;;;;7.40;4.93;;;;;;;;;;5110759;28;20032;-72
2021/11/27 14:32:16;;;;;;;9.13;5.00;;;;;;;;;;5092627;28;20074;-74
2021/11/27 14:34:42;;;;;;;9.68;4.50;;;;;;;;;;5110922;28;20057;-63
2021/11/27 14:37:09;;;;;;;9.27;4.80;;;;;;;;;;5110913;28;20038;-64